ZSAM

Xiamen Gaoqi International Airport

Xiamen, China
TAF ZSAM 170909Z 1712/1812 20004G11MPS 6000 SCT026 TX35/1806Z TN27/1721Z TEMPO 1806/1812 -TSRA FEW025CB BKN026
Issued Valid From Valid To
Aug-17 @ 09:09 UTC
(6 hours ago)
Aug-17 @ 12:00 UTC
(3 hours ago)
Aug-18 @ 12:00 UTC
(in 21 hours)
Aug-17 @ 12:00 to Aug-18 @ 12:00
TAF ZSAM 170909Z 1712/1812 20004G11MPS 6000 SCT026 TX35/1806Z TN27/1721Z
Wind Visibility Clouds
200° at 8 knots
 Gusting to 21 knots
6,003 meters
  • Scattered at 2,600' AGL
Temporary Aug-18 @ 06:00 to Aug-18 @ 12:00
TEMPO 1806/1812 -TSRA FEW025CB BKN026
Clouds Conditions
  • Few at 2,500' AGL
  • Broken at 2,600' AGL
  • Light Thunderstorm
  • Light Rain
TAF ZSAM 170909Z 1712/1812 20004G11MPS 6000 SCT026 TX35/1806Z TN27/1721Z TEMPO 1806/1812 -TSRA FEW025CB BKN026
Issued Aug-17 @ 09:09 UTC
(6 hours ago)
Valid From Aug-17 @ 12:00 UTC
(3 hours ago)
Valid To Aug-18 @ 12:00 UTC
(in 21 hours)
Aug-17 @ 12:00 - Aug-18 @ 12:00
Wind Visibility
200° at 8 knots
 Gusting to 21 knots
6,003 meters
Clouds
  • Scattered at 2,600' AGL
Temporary Aug-18 @ 06:00 - Aug-18 @ 12:00
Clouds
  • Few at 2,500' AGL
  • Broken at 2,600' AGL
Conditions
  • Light Thunderstorm
  • Light Rain